Time;durP1;ratioP1;P1;durP2;ratioP2;P2;SDS_P1;SDS_P2;PMS_P1;PMS_P2;Temp;Humidity;BMP_temperature;BMP_pressure;BME280_temperature;BME280_humidity;BME280_pressure;Samples;Min_cycle;Max_cycle;Signal;HPM_P1;HPM_P2
2021/05/27 00:00:52;;;;;;;5.30;2.75;;;;;;;11.28;61.25;98202.76;125760;1096;22748;-76
2021/05/27 00:03:20;;;;;;;7.33;3.20;;;;;;;11.26;62.20;98204.08;125800;1104;22916;-75
2021/05/27 00:05:48;;;;;;;7.30;2.80;;;;;;;11.19;61.89;98199.66;125777;1104;22825;-76
2021/05/27 00:08:15;;;;;;;6.20;2.85;;;;;;;11.16;62.15;98200.16;125782;1096;25878;-76
2021/05/27 00:10:43;;;;;;;5.63;3.17;;;;;;;11.13;61.92;98197.94;125721;1096;25867;-76
2021/05/27 00:13:24;;;;;;;7.97;2.80;;;;;;;11.09;62.16;98204.98;125792;1104;22749;-76
2021/05/27 00:16:06;;;;;;;5.00;2.45;;;;;;;11.06;61.71;98210.13;125744;1104;22883;-76
2021/05/27 00:18:33;;;;;;;8.50;2.50;;;;;;;11.04;62.09;98196.75;125817;1097;25989;-76
2021/05/27 00:21:15;;;;;;;5.40;2.60;;;;;;;11.02;62.23;98194.27;125906;1102;22741;-76
2021/05/27 00:23:42;;;;;;;5.70;2.80;;;;;;;11.05;62.38;98200.29;125779;1101;22808;-76
2021/05/27 00:26:24;;;;;;;4.93;2.50;;;;;;;11.07;61.68;98198.97;125871;1101;22809;-77
2021/05/27 00:28:52;;;;;;;6.35;2.83;;;;;;;11.13;61.69;98206.11;125813;1096;26207;-76
2021/05/27 00:31:20;;;;;;;5.00;2.75;;;;;;;11.18;61.86;98203.45;126088;1101;24380;-76
2021/05/27 00:33:48;;;;;;;5.77;2.93;;;;;;;11.23;62.02;98202.70;126065;1101;22741;-76
2021/05/27 00:36:15;;;;;;;5.90;2.90;;;;;;;11.24;61.55;98198.88;126048;1096;22767;-76
2021/05/27 00:38:43;;;;;;;7.83;3.13;;;;;;;11.25;61.21;98203.27;125807;1096;26256;-76
2021/05/27 00:41:11;;;;;;;7.20;3.00;;;;;;;11.26;61.90;98204.08;125795;1101;22768;-76
2021/05/27 00:43:38;;;;;;;7.15;2.65;;;;;;;11.28;62.23;98204.64;125830;1102;22806;-76
2021/05/27 00:46:06;;;;;;;6.30;3.00;;;;;;;11.26;62.47;98204.08;125848;1096;22748;-76
2021/05/27 00:51:34;;;;;;;7.05;2.90;;;;;;;11.19;62.92;98216.02;125870;1101;22813;-76
2021/05/27 00:54:03;;;;;;;7.70;3.40;;;;;;;11.18;63.20;98205.36;125804;1103;22771;-76
2021/05/27 00:56:31;;;;;;;12.68;5.98;;;;;;;11.15;63.71;98208.59;125909;1101;22725;-76
2021/05/27 00:58:59;;;;;;;11.25;4.05;;;;;;;11.08;63.64;98214.23;125799;1101;22749;-76
2021/05/27 01:01:27;;;;;;;8.48;3.53;;;;;;;11.05;64.33;98214.76;126116;1096;22747;-76
2021/05/27 01:04:09;;;;;;;7.30;3.65;;;;;;;11.01;64.87;98219.05;126142;1102;22591;-76
2021/05/27 01:06:37;;;;;;;7.85;3.45;;;;;;;11.02;64.69;98220.71;126072;1096;22805;-76
2021/05/27 01:09:05;;;;;;;7.60;3.40;;;;;;;11.01;64.82;98216.33;125787;1102;22738;-76
2021/05/27 01:11:33;;;;;;;7.00;4.15;;;;;;;11.02;64.64;98216.08;126122;1101;22803;-76
2021/05/27 01:17:07;;;;;;;19.57;7.53;;;;;;;11.04;64.64;98209.56;126090;1101;22741;-76
2021/05/27 01:19:35;;;;;;;6.87;4.03;;;;;;;11.04;63.62;98215.01;126090;1101;22763;-76
2021/05/27 01:22:02;;;;;;;5.17;3.17;;;;;;;11.05;63.61;98217.48;126057;1101;22734;-76
2021/05/27 01:24:30;;;;;;;6.30;3.10;;;;;;;11.06;62.99;98213.66;126115;1101;24547;-76
2021/05/27 01:27:00;;;;;;;7.35;3.55;;;;;;;11.07;62.73;98218.05;126170;1101;22765;-76
2021/05/27 01:29:27;;;;;;;5.20;2.97;;;;;;;11.06;63.00;98213.66;125849;1102;22734;-76
2021/05/27 01:31:58;;;;;;;6.20;2.65;;;;;;;11.08;63.43;98218.86;126053;1101;22913;-76
2021/05/27 01:34:26;;;;;;;10.15;4.63;;;;;;;11.07;63.25;98222.69;126144;1101;22757;-76
2021/05/27 01:36:54;;;;;;;6.60;2.60;;;;;;;11.05;62.58;98217.48;126216;1102;23215;-76
2021/05/27 01:39:21;;;;;;;6.20;3.10;;;;;;;11.04;63.35;98212.28;125896;1101;22831;-76
2021/05/27 01:41:51;;;;;;;5.10;2.50;;;;;;;11.01;63.70;98221.77;126089;1101;22744;-76
2021/05/27 01:44:33;;;;;;;6.53;2.47;;;;;;;10.94;64.02;98224.71;125824;1096;26203;-76
2021/05/27 01:47:01;;;;;;;4.00;2.30;;;;;;;10.90;64.67;98228.18;125809;1101;22826;-76
2021/05/27 01:49:29;;;;;;;5.50;3.10;;;;;;;10.84;64.75;98230.02;126092;1101;22765;-76
2021/05/27 01:51:56;;;;;;;6.90;3.40;;;;;;;10.82;65.24;98234.91;126079;1101;22806;-76
2021/05/27 01:54:24;;;;;;;6.47;2.97;;;;;;;10.78;65.71;98233.73;125863;1096;25870;-76
2021/05/27 01:57:07;;;;;;;5.70;2.80;;;;;;;10.79;65.37;98238.13;126120;1101;22741;-76
2021/05/27 01:59:34;;;;;;;5.83;3.08;;;;;;;10.78;65.24;98237.31;126138;1101;22799;-76
2021/05/27 02:02:02;;;;;;;8.45;3.55;;;;;;;10.78;65.26;98233.73;126066;1101;22762;-76
2021/05/27 02:04:44;;;;;;;5.53;2.90;;;;;;;10.77;64.59;98241.09;125824;1101;22910;-76
2021/05/27 02:07:29;;;;;;;6.10;2.77;;;;;;;10.79;64.21;98244.38;125871;1096;27345;-76
2021/05/27 02:09:58;;;;;;;5.95;3.10;;;;;;;10.78;64.11;98240.03;126057;1096;26005;-76
2021/05/27 02:12:25;;;;;;;5.70;2.80;;;;;;;10.80;64.17;98239.75;126096;1096;26209;-76
2021/05/27 02:14:53;;;;;;;5.33;2.73;;;;;;;10.81;64.16;98244.14;125812;1101;22766;-76
2021/05/27 02:17:35;;;;;;;8.35;2.80;;;;;;;10.80;64.29;98243.33;126087;1096;22740;-76
2021/05/27 02:20:07;;;;;;;5.90;2.85;;;;;;;10.80;63.99;98251.50;125825;1101;22744;-77
2021/05/27 02:22:36;;;;;;;7.95;2.60;;;;;;;10.81;63.86;98244.95;125910;1102;24418;-76
2021/05/27 02:25:15;;;;;;;3.45;2.20;;;;;;;10.85;63.70;98248.00;126060;1096;22745;-76
2021/05/27 02:27:44;;;;;;;3.95;2.00;;;;;;;10.88;63.27;98254.86;126094;1101;22777;-76
2021/05/27 02:30:14;;;;;;;4.43;2.20;;;;;;;10.91;63.13;98251.64;125818;1102;22766;-76
2021/05/27 02:32:55;;;;;;;7.05;2.40;;;;;;;10.95;62.98;98252.77;126027;1096;22918;-76
2021/05/27 02:35:25;;;;;;;4.00;2.10;;;;;;;10.98;62.95;98249.55;125813;1096;27171;-76
2021/05/27 02:37:53;;;;;;;5.37;2.27;;;;;;;10.99;63.01;98248.45;125811;1101;22854;-76
2021/05/27 02:40:22;;;;;;;6.77;2.30;;;;;;;11.01;62.63;98243.57;126060;1101;22740;-76
2021/05/27 02:42:51;;;;;;;5.75;2.30;;;;;;;11.02;62.97;98240.59;126137;1101;22737;-76
2021/05/27 02:45:18;;;;;;;3.27;1.97;;;;;;;11.01;63.64;98247.14;126117;1101;22772;-76
2021/05/27 02:47:48;;;;;;;7.85;2.50;;;;;;;10.99;63.88;98245.73;126058;1096;24545;-76
2021/05/27 02:50:16;;;;;;;3.60;2.00;;;;;;;10.95;64.37;98248.14;126065;1101;22771;-76
2021/05/27 02:52:44;;;;;;;3.77;2.30;;;;;;;10.94;64.23;98245.66;126054;1096;26532;-77
2021/05/27 02:55:27;;;;;;;6.50;2.20;;;;;;;10.93;64.79;98244.84;126010;1101;22842;-77
2021/05/27 02:58:11;;;;;;;5.20;2.40;;;;;;;10.94;64.89;98241.05;126074;1096;26210;-76
2021/05/27 03:00:53;;;;;;;4.57;2.27;;;;;;;10.96;64.13;98238.05;125838;1102;24554;-76
2021/05/27 03:03:37;;;;;;;5.80;1.97;;;;;;;11.00;64.54;98244.66;126147;1096;26204;-76
2021/05/27 03:06:05;;;;;;;6.25;1.95;;;;;;;11.02;64.58;98254.22;125936;1097;26226;-76
2021/05/27 03:08:41;;;;;;;6.05;1.95;;;;;;;11.05;64.08;98249.34;125875;1103;22787;-76
2021/05/27 03:11:10;;;;;;;3.70;1.80;;;;;;;11.08;64.50;98254.29;125962;1096;22738;-77
2021/05/27 03:13:39;;;;;;;7.83;1.93;;;;;;;11.09;64.48;98253.22;125876;1097;27228;-77
2021/05/27 03:16:08;;;;;;;3.95;1.98;;;;;;;11.11;64.26;98251.06;125918;1102;22737;-77
2021/05/27 03:18:36;;;;;;;3.25;1.55;;;;;;;11.12;64.28;98258.99;126137;1096;27147;-77
2021/05/27 03:21:04;;;;;;;3.90;1.70;;;;;;;11.13;64.46;98252.45;125882;1102;22796;-77
2021/05/27 03:23:34;;;;;;;6.40;1.80;;;;;;;11.17;64.05;98259.06;126058;1101;24405;-77
2021/05/27 03:26:16;;;;;;;5.05;1.90;;;;;;;11.20;63.53;98263.98;126057;1101;22884;-77
2021/05/27 03:28:58;;;;;;;3.00;1.47;;;;;;;11.24;63.43;98264.30;126106;1101;22744;-77
2021/05/27 03:31:39;;;;;;;2.30;1.13;;;;;;;11.29;64.20;98269.00;125935;1102;22918;-77
2021/05/27 03:34:08;;;;;;;2.33;1.30;;;;;;;11.34;63.73;98260.88;125979;1101;22825;-76
2021/05/27 03:36:36;;;;;;;2.50;1.15;;;;;;;11.36;63.75;98259.53;125844;1104;23675;-77
2021/05/27 03:39:06;;;;;;;2.85;1.25;;;;;;;11.42;63.38;98263.16;125934;1101;22719;-77
2021/05/27 03:41:48;;;;;;;2.10;1.10;;;;;;;11.46;63.00;98267.02;126149;1097;26298;-77
2021/05/27 03:44:16;;;;;;;1.90;1.15;;;;;;;11.50;63.20;98268.15;125934;1101;24411;-77
2021/05/27 03:46:45;;;;;;;1.50;1.05;;;;;;;11.55;62.68;98270.13;126172;1097;27100;-77
2021/05/27 03:49:13;;;;;;;2.65;1.10;;;;;;;11.59;62.67;98279.42;125837;1102;22772;-77
2021/05/27 03:51:41;;;;;;;2.15;1.30;;;;;;;11.61;62.62;98276.45;126058;1101;22768;-77
2021/05/27 03:54:09;;;;;;;3.00;1.25;;;;;;;11.64;62.93;98265.03;125903;1103;22758;-77
2021/05/27 03:56:36;;;;;;;2.80;1.40;;;;;;;11.67;62.83;98275.41;125890;1101;22738;-77
2021/05/27 04:02:09;;;;;;;2.90;1.50;;;;;;;11.73;62.74;98263.48;126056;1101;22761;-77
2021/05/27 04:07:59;;;;;;;4.15;1.80;;;;;;;11.84;63.24;98264.41;125868;1101;22764;-76
2021/05/27 04:10:27;;;;;;;4.13;1.40;;;;;;;11.88;63.11;98271.83;125886;1102;22831;-77
2021/05/27 04:12:54;;;;;;;3.30;1.55;;;;;;;11.94;63.47;98265.36;125879;1102;22771;-77
2021/05/27 04:15:29;;;;;;;6.05;1.35;;;;;;;12.00;62.52;98268.14;126054;1096;25874;-77
2021/05/27 04:18:16;;;;;;;5.75;1.35;;;;;;;12.05;62.21;98279.10;126090;1095;27163;-77
2021/05/27 04:20:51;;;;;;;3.50;1.30;;;;;;;12.08;62.58;98279.41;125851;1095;27246;-76
2021/05/27 04:23:35;;;;;;;5.15;1.50;;;;;;;12.14;62.45;98283.81;126033;1101;24418;-77
2021/05/27 04:26:06;;;;;;;6.10;1.50;;;;;;;12.18;62.33;98281.39;126099;1101;22758;-77
2021/05/27 04:28:33;;;;;;;5.55;1.80;;;;;;;12.20;62.46;98281.98;126107;1101;22893;-77
2021/05/27 04:31:16;;;;;;;3.97;1.27;;;;;;;12.24;62.22;98272.17;125881;1101;24376;-77
2021/05/27 04:33:45;;;;;;;3.65;1.60;;;;;;;12.26;61.93;98283.66;126055;1101;22740;-77
2021/05/27 04:36:14;;;;;;;4.10;1.40;;;;;;;12.29;62.17;98283.14;125849;1103;22758;-77
2021/05/27 04:38:43;;;;;;;4.25;1.65;;;;;;;12.31;62.04;98282.88;126150;1096;27252;-77
2021/05/27 04:41:11;;;;;;;5.37;1.50;;;;;;;12.33;62.08;98278.80;125872;1102;22725;-77
2021/05/27 04:43:39;;;;;;;3.15;1.70;;;;;;;12.37;61.96;98273.63;126091;1096;26239;-77
2021/05/27 04:46:09;;;;;;;3.93;1.60;;;;;;;12.41;62.38;98279.39;125905;1101;22737;-77
2021/05/27 04:48:37;;;;;;;4.23;1.55;;;;;;;12.44;62.66;98276.15;126138;1102;24838;-77
2021/05/27 04:51:05;;;;;;;6.50;1.95;;;;;;;12.48;62.01;98278.11;126234;1101;24544;-77
2021/05/27 04:53:47;;;;;;;3.93;1.67;;;;;;;12.53;62.25;98271.84;126088;1101;22758;-77
2021/05/27 04:56:28;;;;;;;5.10;1.85;;;;;;;12.62;63.21;98277.64;126170;1101;22835;-77
2021/05/27 04:58:56;;;;;;;4.40;2.30;;;;;;;12.70;62.81;98274.42;126245;1101;22906;-77
2021/05/27 05:01:37;;;;;;;5.90;1.90;;;;;;;12.80;62.18;98276.38;126211;1101;22765;-77
2021/05/27 05:04:05;;;;;;;6.55;1.85;;;;;;;12.91;62.18;98278.11;126188;1101;23527;-77
2021/05/27 05:06:49;;;;;;;5.95;1.50;;;;;;;13.01;62.63;98280.88;125938;1101;22765;-77
2021/05/27 05:09:17;;;;;;;4.95;1.70;;;;;;;13.08;62.32;98275.17;126219;1096;22764;-77
2021/05/27 05:11:45;;;;;;;5.25;1.40;;;;;;;13.16;61.45;98285.61;126234;1096;22744;-77
2021/05/27 05:14:26;;;;;;;4.30;1.40;;;;;;;13.26;61.37;98287.56;126235;1101;22734;-77
2021/05/27 05:16:55;;;;;;;6.05;1.60;;;;;;;13.34;61.76;98276.15;126040;1095;25909;-77
2021/05/27 05:19:23;;;;;;;3.70;1.50;;;;;;;13.41;61.46;98284.92;125928;1102;22819;-77
2021/05/27 05:21:50;;;;;;;3.90;1.50;;;;;;;13.49;60.95;98297.25;126197;1096;25864;-77
2021/05/27 05:24:18;;;;;;;3.65;1.00;;;;;;;13.57;60.71;98290.46;126146;1096;25864;-77
2021/05/27 05:26:45;;;;;;;3.27;1.20;;;;;;;13.63;60.51;98286.63;126182;1101;22758;-77
2021/05/27 05:29:13;;;;;;;3.85;1.55;;;;;;;13.74;60.74;98284.75;125917;1102;22758;-77
2021/05/27 05:31:54;;;;;;;2.10;1.60;;;;;;;13.84;60.94;98277.38;126004;1095;27253;-77
2021/05/27 05:34:22;;;;;;;2.85;1.30;;;;;;;13.97;60.52;98281.53;126207;1096;22762;-77
2021/05/27 05:36:50;;;;;;;2.05;0.70;;;;;;;14.09;58.82;98285.91;125920;1101;22741;-77
2021/05/27 05:39:31;;;;;;;2.70;0.90;;;;;;;14.18;59.00;98287.01;126171;1096;26248;-77
2021/05/27 05:41:59;;;;;;;2.65;1.20;;;;;;;14.28;58.60;98291.69;126182;1101;22767;-77
2021/05/27 05:44:26;;;;;;;2.43;0.80;;;;;;;14.36;58.60;98286.48;126171;1101;22814;-77
2021/05/27 05:46:54;;;;;;;4.27;0.90;;;;;;;14.47;57.64;98290.04;126068;1103;22884;-77
2021/05/27 05:49:21;;;;;;;2.10;0.80;;;;;;;14.59;57.27;98287.06;126185;1101;24418;-77
2021/05/27 05:51:49;;;;;;;2.37;0.90;;;;;;;14.71;56.62;98289.50;126089;1101;22944;-77
2021/05/27 05:54:17;;;;;;;2.75;1.00;;;;;;;14.80;56.86;98293.31;126258;1101;23652;-77
2021/05/27 05:56:45;;;;;;;2.70;0.90;;;;;;;14.82;56.78;98285.66;126019;1096;27092;-77
2021/05/27 05:59:12;;;;;;;2.43;0.97;;;;;;;14.85;56.44;98296.05;126162;1101;22765;-77
2021/05/27 06:01:55;;;;;;;2.90;1.00;;;;;;;14.88;56.73;98291.95;126228;1096;22803;-77
2021/05/27 06:04:23;;;;;;;3.75;0.80;;;;;;;14.88;55.58;98297.43;125981;1101;22843;-77
2021/05/27 06:07:03;;;;;;;2.28;0.55;;;;;;;14.85;54.54;98292.49;126222;1096;22758;-77
2021/05/27 06:09:30;;;;;;;1.90;0.75;;;;;;;14.80;54.56;98301.53;126022;1096;22719;-77
2021/05/27 06:11:58;;;;;;;1.15;0.70;;;;;;;14.77;55.05;98299.38;126028;1096;26238;-77
2021/05/27 06:14:27;;;;;;;1.15;0.60;;;;;;;14.70;55.50;98296.09;126295;1096;26235;-77
2021/05/27 06:16:56;;;;;;;;;;;;;;;14.65;54.30;98301.58;126038;1096;26194;-77
2021/05/27 06:19:26;;;;;;;3.25;0.70;;;;;;;14.59;54.62;98301.58;126252;1096;24499;-77
2021/05/27 06:22:03;;;;;;;1.03;0.67;;;;;;;14.59;55.03;98298.84;126191;1101;24572;-77
2021/05/27 06:24:48;;;;;;;1.15;0.60;;;;;;;14.59;55.35;98304.31;126176;1101;22896;-77
2021/05/27 06:27:14;;;;;;;2.23;0.43;;;;;;;14.61;55.86;98295.83;126140;1096;25944;-77
2021/05/27 06:29:41;;;;;;;1.70;0.60;;;;;;;14.66;55.46;98309.53;125911;1102;22744;-77
2021/05/27 06:32:07;;;;;;;0.80;0.50;;;;;;;14.69;55.17;98297.99;126206;1101;22758;-77
2021/05/27 06:34:34;;;;;;;1.65;0.75;;;;;;;14.74;55.11;98300.73;126333;1101;22826;-77
2021/05/27 06:37:01;;;;;;;1.77;0.70;;;;;;;14.79;55.97;98300.72;126309;1101;22926;-77
2021/05/27 06:39:27;;;;;;;0.50;0.50;;;;;;;14.85;54.68;98307.02;126059;1095;27205;-77
2021/05/27 06:41:55;;;;;;;3.20;0.50;;;;;;;14.93;54.21;98305.66;126106;1096;25865;-77
2021/05/27 06:44:23;;;;;;;1.48;0.65;;;;;;;14.92;53.73;98298.52;126137;1102;22733;-77
2021/05/27 06:46:50;;;;;;;2.63;0.70;;;;;;;14.85;54.93;98303.46;126031;1101;24421;-77
2021/05/27 06:49:16;;;;;;;2.70;0.60;;;;;;;14.83;55.92;98306.47;125840;1103;22733;-77
2021/05/27 06:51:44;;;;;;;4.15;0.80;;;;;;;14.89;55.36;98307.28;125777;1101;22755;-76
2021/05/27 06:54:11;;;;;;;2.25;0.65;;;;;;;14.88;54.90;98314.70;126026;1101;22907;-76
2021/05/27 06:56:38;;;;;;;2.65;1.00;;;;;;;14.85;54.30;98317.17;125855;1102;24563;-76
2021/05/27 06:59:05;;;;;;;1.93;0.67;;;;;;;14.91;54.24;98308.67;126122;1101;22754;-77
2021/05/27 07:01:32;;;;;;;1.70;0.50;;;;;;;15.04;53.63;98310.00;126117;1101;22745;-77
2021/05/27 07:03:58;;;;;;;1.70;0.60;;;;;;;15.10;53.49;98313.55;125820;1096;22854;-77
2021/05/27 07:06:24;;;;;;;1.05;0.35;;;;;;;15.09;52.63;98312.73;126073;1101;22809;-77
2021/05/27 07:08:51;;;;;;;1.75;0.60;;;;;;;15.10;52.62;98325.36;126038;1101;22722;-77
2021/05/27 07:11:17;;;;;;;0.83;0.50;;;;;;;15.14;52.18;98315.47;125815;1096;26203;-77
2021/05/27 07:13:44;;;;;;;3.33;0.90;;;;;;;15.24;51.23;98322.83;126077;1101;22737;-77
2021/05/27 07:16:10;;;;;;;1.57;0.40;;;;;;;15.36;51.82;98306.88;125806;1102;24684;-77
2021/05/27 07:18:37;;;;;;;3.23;0.90;;;;;;;15.54;53.38;98310.11;125861;1096;22831;-77
2021/05/27 07:21:03;;;;;;;0.85;0.50;;;;;;;15.65;53.00;98316.38;126102;1096;26346;-77
2021/05/27 07:23:31;;;;;;;1.60;0.60;;;;;;;15.68;51.96;98313.88;126184;1101;24511;-76
2021/05/27 07:26:00;;;;;;;2.30;0.67;;;;;;;15.83;51.39;98315.78;126269;1097;26249;-76
2021/05/27 07:28:27;;;;;;;2.08;0.95;;;;;;;15.99;51.03;98316.51;125974;1102;22768;-77
2021/05/27 07:30:53;;;;;;;2.17;0.63;;;;;;;16.16;50.67;98318.05;125986;1102;22768;-76
2021/05/27 07:33:20;;;;;;;0.80;0.60;;;;;;;16.26;49.64;98312.48;125883;1104;22751;-77
2021/05/27 07:35:47;;;;;;;1.83;0.80;;;;;;;16.42;50.63;98318.69;126228;1097;26220;-77
2021/05/27 07:38:13;;;;;;;1.10;0.70;;;;;;;16.56;50.67;98313.36;125845;1097;26258;-77
2021/05/27 07:40:40;;;;;;;1.43;0.70;;;;;;;16.68;49.11;98309.12;126166;1101;22983;-77
2021/05/27 07:43:06;;;;;;;3.53;0.70;;;;;;;16.81;50.02;98310.37;126065;1096;22741;-77
2021/05/27 07:45:33;;;;;;;1.77;0.60;;;;;;;16.93;48.00;98320.18;126033;1101;22765;-77
2021/05/27 07:47:59;;;;;;;4.35;1.00;;;;;;;16.87;49.68;98313.91;126183;1097;26255;-77
2021/05/27 07:50:26;;;;;;;1.07;0.73;;;;;;;16.73;49.50;98319.23;126173;1101;22820;-77
2021/05/27 07:52:54;;;;;;;2.63;1.10;;;;;;;16.66;50.48;98322.34;126285;1101;22755;-77
2021/05/27 07:55:21;;;;;;;3.48;1.15;;;;;;;16.61;51.24;98330.63;126034;1097;22749;-77
2021/05/27 07:57:47;;;;;;;2.28;0.60;;;;;;;16.55;49.78;98323.52;125967;1096;26295;-77
2021/05/27 08:00:15;;;;;;;1.28;0.80;;;;;;;16.51;49.42;98317.77;125865;1102;22741;-77
2021/05/27 08:02:43;;;;;;;0.65;0.50;;;;;;;16.54;46.82;98319.14;125988;1097;22746;-77
2021/05/27 08:05:13;;;;;;;1.75;0.60;;;;;;;16.59;48.46;98323.76;126160;1101;22743;-77
2021/05/27 08:07:42;;;;;;;1.27;0.30;;;;;;;16.69;47.87;98318.17;126158;1101;22751;-75
2021/05/27 08:10:25;;;;;;;2.05;0.40;;;;;;;16.85;45.79;98324.39;125862;1104;22746;-75
2021/05/27 08:12:57;;;;;;;3.53;0.85;;;;;;;17.02;46.55;98324.78;125987;1102;23360;-75
2021/05/27 08:15:27;;;;;;;1.90;0.60;;;;;;;17.05;46.53;98323.36;126182;1101;22744;-76
2021/05/27 08:18:09;;;;;;;0.75;0.60;;;;;;;17.00;48.42;98315.19;126247;1101;22787;-76
2021/05/27 08:20:37;;;;;;;4.68;0.83;;;;;;;16.99;48.51;98317.09;126026;1101;22961;-76
2021/05/27 08:23:05;;;;;;;2.28;0.60;;;;;;;17.13;46.44;98316.42;126046;1097;23898;-76
2021/05/27 08:25:35;;;;;;;1.15;0.50;;;;;;;17.29;44.12;98314.33;126226;1102;22768;-76
2021/05/27 08:28:06;;;;;;;0.58;0.40;;;;;;;17.46;41.41;98309.17;126147;1101;22902;-76
2021/05/27 08:30:37;;;;;;;0.90;0.40;;;;;;;17.62;41.39;98320.81;125909;1101;22740;-76
2021/05/27 08:33:05;;;;;;;6.85;0.78;;;;;;;17.77;45.76;98322.54;125815;1102;22816;-76
2021/05/27 08:35:33;;;;;;;1.75;0.40;;;;;;;17.89;46.19;98328.47;126038;1096;25867;-76
2021/05/27 08:38:05;;;;;;;2.85;0.68;;;;;;;17.88;44.42;98320.50;126342;1097;25893;-76
2021/05/27 08:40:37;;;;;;;2.48;0.80;;;;;;;17.91;43.62;98336.44;126128;1101;23302;-76
2021/05/27 08:43:06;;;;;;;1.30;0.70;;;;;;;17.79;44.10;98328.56;126104;1096;26411;-76
2021/05/27 08:45:36;;;;;;;2.70;0.50;;;;;;;17.83;43.00;98332.39;126005;1096;27349;-76
2021/05/27 08:48:07;;;;;;;3.03;0.90;;;;;;;17.98;43.57;98334.95;126119;1101;22744;-76
2021/05/27 08:50:41;;;;;;;1.43;0.60;;;;;;;18.08;43.87;98319.38;126085;1101;22748;-76
2021/05/27 08:53:14;;;;;;;3.53;0.70;;;;;;;18.13;43.40;98325.66;125995;1096;22826;-76
2021/05/27 08:55:47;;;;;;;1.75;0.60;;;;;;;18.28;43.17;98329.30;126210;1096;22772;-76
2021/05/27 08:58:19;;;;;;;0.75;0.50;;;;;;;18.40;41.61;98324.97;125858;1102;22747;-76
2021/05/27 09:00:48;;;;;;;2.03;0.40;;;;;;;18.43;43.21;98330.99;126254;1101;22748;-76
2021/05/27 09:03:18;;;;;;;0.78;0.60;;;;;;;18.43;42.43;98325.48;125903;1101;22957;-76
2021/05/27 09:05:59;;;;;;;3.00;0.80;;;;;;;18.45;41.29;98321.32;126094;1096;26331;-76
2021/05/27 09:08:33;;;;;;;0.70;0.60;;;;;;;18.54;42.15;98322.27;126112;1101;22748;-77
2021/05/27 09:11:21;;;;;;;1.93;0.93;;;;;;;18.67;44.04;98322.63;126142;1096;22751;-77
2021/05/27 09:13:59;;;;;;;1.70;0.70;;;;;;;18.78;43.50;98321.31;125864;1096;27224;-77
2021/05/27 09:16:28;;;;;;;3.50;1.23;;;;;;;18.75;41.71;98321.91;126085;1101;22740;-77
2021/05/27 09:19:16;;;;;;;2.85;0.95;;;;;;;18.69;42.90;98310.15;125875;1101;22809;-77
2021/05/27 09:21:46;;;;;;;1.23;0.70;;;;;;;18.79;42.42;98325.72;125955;1095;27288;-77
2021/05/27 09:24:14;;;;;;;1.30;0.65;;;;;;;18.88;43.00;98334.16;126088;1101;22752;-77
2021/05/27 09:26:59;;;;;;;0.98;0.50;;;;;;;18.95;40.02;98326.30;126062;1101;22747;-77
2021/05/27 09:29:50;;;;;;;2.63;0.70;;;;;;;19.13;39.45;98332.88;126057;1096;23518;-77
2021/05/27 09:32:23;;;;;;;1.33;0.58;;;;;;;19.25;39.66;98327.67;125814;1096;26210;-77
2021/05/27 09:34:52;;;;;;;1.73;0.70;;;;;;;19.49;38.77;98323.89;126062;1096;27499;-77
2021/05/27 09:37:29;;;;;;;0.93;0.63;;;;;;;19.73;38.02;98331.97;126123;1101;23662;-77
2021/05/27 09:40:08;;;;;;;1.20;0.50;;;;;;;19.89;36.76;98335.27;126097;1101;24424;-77
2021/05/27 09:42:49;;;;;;;1.60;0.60;;;;;;;19.96;37.95;98330.13;125789;1101;22761;-77
2021/05/27 09:45:20;;;;;;;1.57;0.60;;;;;;;20.14;37.68;98333.88;125790;1096;26216;-77
2021/05/27 09:47:48;;;;;;;1.33;0.60;;;;;;;20.29;38.27;98321.63;125845;1102;22744;-77
2021/05/27 09:50:41;;;;;;;1.98;0.80;;;;;;;20.47;39.15;98330.91;125879;1096;24380;-77
2021/05/27 09:53:15;;;;;;;3.23;0.80;;;;;;;20.48;39.06;98327.00;126134;1101;22766;-77
2021/05/27 09:55:45;;;;;;;2.53;0.93;;;;;;;20.27;39.57;98326.66;126040;1096;27217;-77
2021/05/27 09:58:16;;;;;;;3.33;0.80;;;;;;;19.91;38.97;98341.30;126136;1101;22910;-77
2021/05/27 10:00:47;;;;;;;1.98;1.08;;;;;;;19.86;39.14;98333.11;126124;1101;22804;-77
2021/05/27 10:03:33;;;;;;;2.38;0.70;;;;;;;19.95;38.73;98335.97;125847;1101;22825;-77
2021/05/27 10:06:15;;;;;;;2.15;0.63;;;;;;;20.15;39.40;98329.99;125817;1101;22832;-77
2021/05/27 10:08:57;;;;;;;1.70;0.60;;;;;;;20.38;37.67;98335.53;126044;1096;22823;-77
2021/05/27 10:11:26;;;;;;;1.78;0.70;;;;;;;20.53;37.85;98332.41;126034;1101;22772;-77
2021/05/27 10:13:54;;;;;;;2.83;0.53;;;;;;;20.65;35.65;98334.66;125887;1102;22729;-77
2021/05/27 10:16:37;;;;;;;1.00;0.50;;;;;;;20.72;35.20;98331.45;126042;1101;22844;-77
2021/05/27 10:19:11;;;;;;;1.95;0.50;;;;;;;20.74;36.88;98320.88;125937;1102;22825;-78
2021/05/27 10:21:52;;;;;;;2.45;0.50;;;;;;;20.76;37.01;98324.95;126090;1096;26318;-77
2021/05/27 10:24:21;;;;;;;1.40;0.50;;;;;;;20.83;36.85;98338.36;126102;1096;27341;-77
2021/05/27 10:26:48;;;;;;;1.20;0.63;;;;;;;20.97;35.66;98322.48;125790;1096;26206;-78
2021/05/27 10:29:26;;;;;;;1.93;0.70;;;;;;;21.09;37.22;98326.60;125856;1096;22910;-78
2021/05/27 10:31:54;;;;;;;0.83;0.58;;;;;;;20.99;35.15;98322.98;125788;1102;24380;-77
2021/05/27 10:34:50;;;;;;;1.83;0.40;;;;;;;20.81;37.57;98327.59;126038;1101;22750;-77
2021/05/27 10:37:37;;;;;;;1.00;0.40;;;;;;;20.86;38.06;98321.93;125851;1096;22764;-78
2021/05/27 10:40:28;;;;;;;0.98;0.40;;;;;;;20.77;36.06;98325.77;126055;1101;22761;-78
2021/05/27 10:42:56;;;;;;;1.90;0.83;;;;;;;20.55;37.06;98329.33;125824;1096;23230;-78
2021/05/27 10:45:40;;;;;;;1.63;0.60;;;;;;;20.44;36.48;98328.77;126113;1096;26207;-78
2021/05/27 10:48:14;;;;;;;0.83;0.60;;;;;;;20.58;37.02;98325.95;126090;1101;22823;-78
2021/05/27 10:53:48;;;;;;;1.43;0.53;;;;;;;20.83;34.62;98327.28;126034;1096;26241;-78
2021/05/27 10:56:35;;;;;;;0.55;0.30;;;;;;;20.97;36.37;98327.20;126072;1101;22743;-78
2021/05/27 10:59:20;;;;;;;1.75;0.53;;;;;;;21.00;36.41;98321.02;126080;1101;24380;-78
2021/05/27 11:01:47;;;;;;;0.35;0.33;;;;;;;20.69;38.01;98335.65;126106;1096;26346;-77
2021/05/27 11:04:22;;;;;;;3.23;0.50;;;;;;;20.55;36.73;98338.45;126072;1096;25980;-77
2021/05/27 11:07:10;;;;;;;2.57;0.77;;;;;;;20.60;35.98;98331.98;125841;1101;24421;-77
2021/05/27 11:09:38;;;;;;;0.30;0.20;;;;;;;20.28;37.22;98334.65;126083;1101;22806;-77
2021/05/27 11:12:12;;;;;;;0.88;0.40;;;;;;;19.93;36.88;98332.70;126085;1101;22743;-77
2021/05/27 11:14:54;;;;;;;1.00;0.55;;;;;;;19.85;37.73;98334.25;126081;1101;22933;-77
2021/05/27 11:17:35;;;;;;;1.03;0.50;;;;;;;19.92;36.55;98337.41;126054;1096;25980;-77
2021/05/27 11:20:20;;;;;;;1.00;0.48;;;;;;;20.01;36.04;98341.08;125821;1101;22922;-77
2021/05/27 11:22:52;;;;;;;0.88;0.30;;;;;;;20.15;35.29;98352.11;125836;1101;22764;-77
2021/05/27 11:25:26;;;;;;;0.87;0.43;;;;;;;20.25;35.33;98340.80;126098;1101;22764;-77
2021/05/27 11:28:17;;;;;;;2.63;0.60;;;;;;;20.36;36.05;98335.03;126088;1096;25867;-77
2021/05/27 11:30:52;;;;;;;3.25;0.53;;;;;;;20.40;35.71;98338.83;126063;1101;22761;-77
2021/05/27 11:33:29;;;;;;;1.88;1.13;;;;;;;20.48;36.88;98333.34;125812;1101;22764;-77
2021/05/27 11:36:00;;;;;;;2.25;0.78;;;;;;;20.51;35.34;98331.91;126051;1096;27119;-77
2021/05/27 11:38:34;;;;;;;2.28;0.60;;;;;;;20.57;36.14;98329.83;125860;1102;22823;-78
2021/05/27 11:41:18;;;;;;;1.05;0.65;;;;;;;20.70;35.76;98331.77;126150;1096;26232;-77
2021/05/27 11:44:01;;;;;;;2.03;0.50;;;;;;;20.93;35.87;98328.95;126080;1101;22836;-77
2021/05/27 11:46:30;;;;;;;2.48;0.58;;;;;;;21.16;37.29;98322.27;125892;1101;22766;-77
2021/05/27 11:49:11;;;;;;;1.10;0.60;;;;;;;21.47;35.34;98320.63;125892;1101;22864;-77
2021/05/27 11:51:39;;;;;;;1.63;0.68;;;;;;;21.73;35.02;98323.48;126108;1101;22744;-77
2021/05/27 11:54:20;;;;;;;0.78;0.40;;;;;;;21.96;32.88;98316.68;126035;1101;22765;-77
2021/05/27 11:56:52;;;;;;;3.28;0.60;;;;;;;22.11;34.11;98325.67;126050;1096;26245;-77
2021/05/27 11:59:21;;;;;;;1.88;0.50;;;;;;;22.12;33.45;98324.54;126117;1101;22769;-77
2021/05/27 12:01:52;;;;;;;2.08;0.65;;;;;;;22.07;33.14;98310.83;126094;1101;22729;-77